Time;durP1;ratioP1;P1;durP2;ratioP2;P2;SDS_P1;SDS_P2;PMS_P1;PMS_P2;Temp;Humidity;BMP_temperature;BMP_pressure;BME280_temperature;BME280_humidity;BME280_pressure;Samples;Min_cycle;Max_cycle;Signal;HPM_P1;HPM_P2
2022/09/28 00:00:25;;;;;;;10.88;7.13;;;;;;;8.75;83.97;99522.13;6121733;23;20125;-89
2022/09/28 00:02:55;;;;;;;8.98;7.15;;;;;;;8.73;83.76;99521.38;6094037;23;20037;-88
2022/09/28 00:05:20;;;;;;;10.05;7.82;;;;;;;8.72;84.03;99519.63;6094809;23;20010;-89
2022/09/28 00:07:45;;;;;;;13.63;7.68;;;;;;;8.71;84.04;99524.06;6120692;23;20001;-88
2022/09/28 00:10:11;;;;;;;11.40;7.95;;;;;;;8.76;84.25;99532.56;6094449;23;20009;-88
2022/09/28 00:12:36;;;;;;;9.13;7.70;;;;;;;8.76;83.94;99529.94;6119187;23;20002;-89
2022/09/28 00:15:02;;;;;;;10.88;7.68;;;;;;;8.70;84.21;99519.72;6120212;23;20421;-88
2022/09/28 00:17:27;;;;;;;10.95;8.50;;;;;;;8.76;83.98;99521.19;6094282;23;20006;-88
2022/09/28 00:19:54;;;;;;;11.35;8.55;;;;;;;8.77;83.83;99521.13;6120288;23;20418;-88
2022/09/28 00:22:19;;;;;;;11.23;7.90;;;;;;;8.82;84.13;99519.09;6092676;23;20020;-89
2022/09/28 00:24:45;;;;;;;10.60;8.77;;;;;;;8.83;84.31;99525.19;6120866;23;20426;-88
2022/09/28 00:27:11;;;;;;;12.60;8.70;;;;;;;8.81;83.93;99504.22;6121073;23;20002;-88
2022/09/28 00:29:36;;;;;;;14.38;9.52;;;;;;;8.82;84.00;99512.97;6119912;23;20002;-88
2022/09/28 00:32:09;;;;;;;17.90;9.50;;;;;;;8.77;84.18;99507.94;6120127;23;20005;-88
2022/09/28 00:34:35;;;;;;;;;;;;;;;8.88;83.02;99512.63;6121874;23;20006;-89
2022/09/28 00:37:02;;;;;;;11.80;8.63;;;;;;;8.71;83.30;99500.34;6119320;23;20027;-88
2022/09/28 00:39:30;;;;;;;15.40;7.80;;;;;;;8.72;83.47;99502.06;6120313;23;20338;-89
2022/09/28 00:41:56;;;;;;;11.32;8.45;;;;;;;8.69;83.54;99505.72;6118290;23;20028;-88
2022/09/28 00:44:24;;;;;;;11.13;8.10;;;;;;;8.65;83.78;99498.06;6086243;23;20506;-88
2022/09/28 00:46:55;;;;;;;9.55;7.97;;;;;;;8.63;83.91;99495.50;6064500;23;20342;-88
2022/09/28 00:49:32;;;;;;;15.13;8.25;;;;;;;8.68;83.59;99492.63;6091733;23;20347;-88
2022/09/28 00:51:58;;;;;;;12.02;7.75;;;;;;;8.65;83.80;99485.72;6065092;23;20061;-88
2022/09/28 00:54:24;;;;;;;9.98;8.63;;;;;;;8.58;83.79;99483.50;6090618;23;20193;-88
2022/09/28 00:56:50;;;;;;;11.98;7.95;;;;;;;8.52;83.57;99489.09;6065743;23;20400;-89
2022/09/28 00:59:15;;;;;;;12.85;8.10;;;;;;;8.54;83.94;99490.75;6065398;23;20042;-89
2022/09/28 01:01:41;;;;;;;9.45;7.97;;;;;;;8.48;83.64;99477.88;6064612;23;20045;-88
2022/09/28 01:04:06;;;;;;;11.02;8.15;;;;;;;8.56;83.76;99499.38;6091159;23;20075;-89
2022/09/28 01:06:36;;;;;;;14.35;8.90;;;;;;;8.60;84.14;99490.41;6066113;23;20006;-89
2022/09/28 01:09:06;;;;;;;21.02;10.15;;;;;;;8.60;83.80;99476.38;6091034;23;20503;-89
2022/09/28 01:11:34;;;;;;;10.88;8.70;;;;;;;8.64;84.08;99483.19;6091893;23;20006;-89
2022/09/28 01:14:00;;;;;;;12.80;8.50;;;;;;;8.73;83.97;99487.13;6091937;23;20002;-88
2022/09/28 01:17:02;;;;;;;11.38;9.02;;;;;;;8.78;84.02;99485.06;6092190;23;20006;-89
2022/09/28 01:19:27;;;;;;;10.20;8.10;;;;;;;8.79;83.60;99490.25;6066836;23;20082;-88
2022/09/28 01:22:06;;;;;;;11.77;8.63;;;;;;;8.77;83.79;99489.50;6065565;23;20034;-88
2022/09/28 01:24:42;;;;;;;12.40;8.70;;;;;;;8.73;83.85;99487.97;6091124;23;20674;-88
2022/09/28 01:27:40;;;;;;;12.75;9.32;;;;;;;8.75;83.69;99491.34;6065059;23;20040;-88
2022/09/28 01:30:14;;;;;;;13.13;9.40;;;;;;;8.69;83.90;99492.53;6089437;23;20113;-89
2022/09/28 01:33:07;;;;;;;12.32;8.45;;;;;;;8.73;83.59;99495.03;6091890;23;20003;-88
2022/09/28 01:35:46;;;;;;;11.35;9.15;;;;;;;8.64;83.79;99483.19;6067802;23;20006;-89
2022/09/28 01:38:18;;;;;;;12.45;9.07;;;;;;;8.61;84.15;99491.25;6067330;23;20045;-88
2022/09/28 01:40:46;;;;;;;14.55;9.70;;;;;;;8.54;84.18;99482.00;6066545;23;20002;-89
2022/09/28 01:43:19;;;;;;;13.77;10.15;;;;;;;8.50;84.22;99480.44;6091010;23;20065;-88
2022/09/28 01:45:50;;;;;;;14.20;10.48;;;;;;;8.55;84.29;99502.97;6092552;23;20046;-88
2022/09/28 01:48:25;;;;;;;14.43;11.32;;;;;;;8.61;84.61;99504.41;6066421;23;20406;-89
2022/09/28 01:50:54;;;;;;;15.65;11.20;;;;;;;8.62;84.80;99509.59;6092987;23;20010;-88
2022/09/28 01:53:52;;;;;;;14.20;11.07;;;;;;;8.70;84.45;99506.56;6066980;23;20030;-89
2022/09/28 01:56:27;;;;;;;14.45;11.60;;;;;;;8.65;84.35;99492.78;6038378;23;20038;-88
2022/09/28 01:59:02;;;;;;;15.30;10.77;;;;;;;8.66;84.69;99503.22;6092292;23;20007;-89
2022/09/28 02:01:38;;;;;;;14.15;11.57;;;;;;;8.63;84.77;99492.88;6091831;23;20497;-89
2022/09/28 02:04:12;;;;;;;14.68;11.05;;;;;;;8.70;84.73;99496.03;6091819;23;20010;-88
2022/09/28 02:06:45;;;;;;;17.95;12.23;;;;;;;8.66;84.62;99489.22;6093436;23;20014;-89
2022/09/28 02:09:14;;;;;;;18.15;11.48;;;;;;;8.71;84.90;99494.22;6092664;23;20018;-89
2022/09/28 02:11:46;;;;;;;18.27;12.20;;;;;;;8.71;84.89;99492.44;6092690;23;20006;-89
2022/09/28 02:14:14;;;;;;;18.45;12.60;;;;;;;8.74;84.87;99496.72;6091551;23;20006;-89
2022/09/28 02:16:42;;;;;;;18.38;12.98;;;;;;;8.72;84.94;99477.47;6065975;23;20343;-89
2022/09/28 02:19:12;;;;;;;19.35;13.02;;;;;;;8.77;84.79;99489.50;6065985;23;20042;-88
2022/09/28 02:21:54;;;;;;;17.55;13.70;;;;;;;8.77;84.88;99489.50;6092129;23;20399;-89
2022/09/28 02:24:44;;;;;;;24.65;14.50;;;;;;;8.78;84.97;99488.56;6066376;23;20083;-88
2022/09/28 02:27:18;;;;;;;15.88;12.90;;;;;;;8.80;84.67;99489.31;6094120;23;20014;-88
2022/09/28 02:29:43;;;;;;;14.80;11.55;;;;;;;8.73;84.58;99479.22;6067719;23;20010;-89
2022/09/28 02:32:09;;;;;;;15.80;11.55;;;;;;;8.75;84.05;99490.50;6066209;23;20386;-88
2022/09/28 02:34:35;;;;;;;15.88;11.07;;;;;;;8.68;84.18;99482.09;6066249;23;20006;-89
2022/09/28 02:37:01;;;;;;;14.90;11.05;;;;;;;8.66;84.33;99487.41;6067527;23;20069;-89
2022/09/28 02:39:27;;;;;;;14.23;10.23;;;;;;;8.61;84.41;99494.72;6093196;23;20061;-89
2022/09/28 02:42:06;;;;;;;15.30;10.70;;;;;;;8.63;84.26;99499.94;6092372;23;20041;-89
2022/09/28 02:44:42;;;;;;;13.50;10.07;;;;;;;8.64;84.43;99494.56;6100895;23;20673;-89
2022/09/28 02:47:36;;;;;;;14.80;9.75;;;;;;;8.66;84.04;99492.69;6121323;23;20035;-89
2022/09/28 02:50:43;;;;;;;14.02;8.80;;;;;;;8.60;83.89;99479.84;6121360;23;20006;-89
2022/09/28 02:53:28;;;;;;;15.27;8.73;;;;;;;8.66;84.02;99495.31;6121357;23;20041;-88
2022/09/28 02:56:05;;;;;;;11.48;8.25;;;;;;;8.62;83.43;99499.06;6095942;23;20419;-89
2022/09/28 02:58:49;;;;;;;13.30;8.27;;;;;;;8.64;83.90;99497.22;6095137;23;20040;-88
2022/09/28 03:01:48;;;;;;;14.77;8.95;;;;;;;8.61;83.78;99496.50;6121790;23;20009;-88
2022/09/28 03:04:52;;;;;;;9.82;7.72;;;;;;;8.64;84.04;99502.47;6096524;23;20489;-88
2022/09/28 03:07:43;;;;;;;10.93;7.82;;;;;;;8.63;83.59;99499.94;6088009;23;20010;-88
2022/09/28 03:10:30;;;;;;;11.60;7.20;;;;;;;8.62;83.54;99496.41;6121943;23;20457;-88
2022/09/28 03:12:56;;;;;;;8.63;7.38;;;;;;;8.61;83.53;99496.50;6094985;23;20013;-89
2022/09/28 03:15:21;;;;;;;8.38;6.53;;;;;;;8.61;83.48;99502.63;6120652;23;20012;-88
2022/09/28 03:17:47;;;;;;;10.90;6.50;;;;;;;8.58;83.61;99494.91;6094931;23;20013;-88
2022/09/28 03:20:12;;;;;;;8.25;5.90;;;;;;;8.60;83.58;99493.03;6122539;23;20346;-88
2022/09/28 03:22:38;;;;;;;6.65;5.43;;;;;;;8.64;83.40;99499.00;6120917;23;20009;-89
2022/09/28 03:25:05;;;;;;;9.85;5.63;;;;;;;8.61;83.21;99496.50;6121599;23;20017;-88
2022/09/28 03:27:30;;;;;;;7.15;5.93;;;;;;;8.63;83.60;99500.78;6095656;23;20528;-88
2022/09/28 03:29:55;;;;;;;7.25;5.97;;;;;;;8.68;83.62;99496.13;6122320;23;20006;-89
2022/09/28 03:32:21;;;;;;;6.97;5.65;;;;;;;8.66;83.75;99497.97;6119529;23;20033;-89
2022/09/28 03:34:46;;;;;;;7.30;5.53;;;;;;;8.64;83.29;99497.22;6093580;23;20040;-88
2022/09/28 03:37:11;;;;;;;9.80;4.85;;;;;;;8.68;83.43;99501.38;6095793;23;20040;-89
2022/09/28 03:39:37;;;;;;;8.52;5.65;;;;;;;8.62;83.28;99496.41;6095920;23;20002;-88
2022/09/28 03:42:02;;;;;;;6.97;5.32;;;;;;;8.63;83.53;99498.16;6092875;23;20413;-88
2022/09/28 03:44:27;;;;;;;5.95;5.18;;;;;;;8.58;83.67;99488.75;6121760;23;20018;-88
2022/09/28 03:46:53;;;;;;;6.78;4.80;;;;;;;8.53;83.89;99496.06;6121101;23;20009;-88
2022/09/28 03:49:18;;;;;;;6.80;4.97;;;;;;;8.53;83.84;99504.81;6121921;23;20010;-88
2022/09/28 03:51:43;;;;;;;7.47;4.50;;;;;;;8.51;83.55;99498.78;6121297;23;20077;-88
2022/09/28 03:54:09;;;;;;;7.65;5.05;;;;;;;8.36;83.96;99489.03;6121550;23;20064;-88
2022/09/28 03:56:34;;;;;;;6.47;4.60;;;;;;;8.43;83.94;99500.97;6121195;23;20085;-89
2022/09/28 03:59:02;;;;;;;5.20;4.10;;;;;;;8.41;84.16;99508.13;6095867;23;20048;-88
2022/09/28 04:01:27;;;;;;;4.95;4.47;;;;;;;8.41;84.36;99495.78;6121046;23;20033;-88
2022/09/28 04:03:56;;;;;;;6.07;4.32;;;;;;;8.50;83.93;99512.06;6093760;23;20449;-89
2022/09/28 04:06:22;;;;;;;5.25;4.00;;;;;;;8.47;84.30;99499.88;6095147;23;20028;-89
2022/09/28 04:08:48;;;;;;;4.63;4.07;;;;;;;8.49;83.83;99505.94;6122100;23;20010;-89
2022/09/28 04:11:13;;;;;;;7.00;3.75;;;;;;;8.43;83.86;99485.16;6119692;23;20013;-89
2022/09/28 04:13:38;;;;;;;5.03;3.75;;;;;;;8.55;84.03;99505.59;6095115;23;20146;-89
2022/09/28 04:16:04;;;;;;;6.20;3.63;;;;;;;8.61;84.06;99517.59;6095196;23;20032;-89
2022/09/28 04:18:31;;;;;;;5.78;3.60;;;;;;;8.50;84.05;99501.50;6094665;23;20081;-89
2022/09/28 04:21:07;;;;;;;5.22;3.60;;;;;;;8.55;84.13;99510.88;6119991;23;20009;-88
2022/09/28 04:23:34;;;;;;;11.05;4.03;;;;;;;8.50;84.01;99505.00;6121216;23;20065;-88
2022/09/28 04:26:00;;;;;;;3.88;3.30;;;;;;;8.52;83.85;99505.75;6095248;23;20008;-88
2022/09/28 04:31:11;;;;;;;4.38;2.95;;;;;;;8.50;84.15;99498.88;6119203;23;20092;-88
2022/09/28 04:33:37;;;;;;;6.95;3.50;;;;;;;8.42;84.38;99491.38;6093235;23;20010;-88
2022/09/28 04:36:03;;;;;;;5.13;2.90;;;;;;;8.47;83.93;99491.13;6121472;23;20012;-88
2022/09/28 04:38:28;;;;;;;4.68;2.58;;;;;;;8.44;83.99;99486.91;6121051;23;20001;-88
2022/09/28 04:40:54;;;;;;;5.25;2.92;;;;;;;8.43;84.08;99488.66;6095272;23;20034;-88
2022/09/28 04:43:19;;;;;;;4.93;2.17;;;;;;;8.48;84.07;99488.41;6094844;23;20021;-88
2022/09/28 04:45:44;;;;;;;4.45;2.40;;;;;;;8.43;84.08;99483.38;6090243;23;20022;-89
2022/09/28 04:48:09;;;;;;;4.18;2.42;;;;;;;8.46;83.93;99495.56;6092177;23;20002;-88
2022/09/28 04:50:35;;;;;;;4.75;2.17;;;;;;;8.43;84.04;99498.34;6090043;23;20038;-89
2022/09/28 04:53:00;;;;;;;3.30;3.00;;;;;;;8.34;84.15;99491.75;6064575;23;20002;-89
2022/09/28 04:55:30;;;;;;;3.97;2.20;;;;;;;8.32;84.15;99503.31;6091397;23;20077;-89
2022/09/28 04:57:56;;;;;;;2.33;2.13;;;;;;;8.24;84.21;99508.94;6091363;23;20032;-88
2022/09/28 05:00:21;;;;;;;2.20;2.00;;;;;;;8.19;84.49;99511.81;6065994;23;20007;-88
2022/09/28 05:02:46;;;;;;;5.75;2.28;;;;;;;8.15;84.38;99518.16;6063235;23;20073;-88
2022/09/28 05:05:12;;;;;;;4.20;2.50;;;;;;;8.13;84.24;99516.56;6091800;23;20010;-88
2022/09/28 05:07:37;;;;;;;5.15;2.30;;;;;;;8.06;84.87;99518.63;6066279;23;20034;-88
2022/09/28 05:10:02;;;;;;;2.72;2.00;;;;;;;8.06;84.56;99525.69;6091775;23;20454;-88
2022/09/28 05:12:28;;;;;;;4.28;2.15;;;;;;;8.02;84.64;99522.38;6090448;23;20013;-88
2022/09/28 05:14:53;;;;;;;3.15;2.33;;;;;;;8.03;84.64;99520.59;6065079;23;20042;-88
2022/09/28 05:17:18;;;;;;;6.00;2.13;;;;;;;8.07;84.72;99533.53;6092229;23;20010;-89
2022/09/28 05:19:44;;;;;;;2.38;1.90;;;;;;;8.07;84.64;99522.16;6091446;23;20007;-88
2022/09/28 05:22:13;;;;;;;4.35;1.98;;;;;;;8.06;84.87;99525.69;6091006;23;20007;-88
2022/09/28 05:24:39;;;;;;;3.40;2.03;;;;;;;8.04;84.75;99520.50;6088972;23;20034;-88
2022/09/28 05:27:04;;;;;;;3.45;1.70;;;;;;;8.02;84.99;99514.50;6092467;23;20010;-88
2022/09/28 05:29:29;;;;;;;3.65;1.75;;;;;;;8.07;84.92;99528.25;6091609;23;20049;-88
2022/09/28 05:31:55;;;;;;;2.72;1.50;;;;;;;8.05;85.03;99521.34;6090443;23;20014;-88
2022/09/28 05:34:20;;;;;;;3.97;1.85;;;;;;;8.09;85.12;99518.50;6089684;23;20443;-88
2022/09/28 05:36:46;;;;;;;1.60;1.40;;;;;;;8.12;84.89;99528.88;6066682;23;20010;-88
2022/09/28 05:39:11;;;;;;;3.17;1.50;;;;;;;8.11;84.85;99528.94;6092810;23;20014;-88
2022/09/28 05:41:36;;;;;;;2.88;1.30;;;;;;;8.09;84.66;99529.03;6089555;23;20128;-88
2022/09/28 05:44:02;;;;;;;2.47;1.75;;;;;;;8.08;84.68;99524.69;6066319;23;20004;-88
2022/09/28 05:46:27;;;;;;;3.50;1.48;;;;;;;8.01;84.72;99520.66;6120209;23;20006;-88
2022/09/28 05:48:53;;;;;;;4.47;2.20;;;;;;;7.97;84.62;99508.59;6095101;23;20010;-88
2022/09/28 05:51:19;;;;;;;2.13;1.60;;;;;;;8.02;84.81;99532.91;6120385;23;20041;-88
2022/09/28 05:53:44;;;;;;;2.30;1.73;;;;;;;8.01;84.52;99532.97;6119611;23;20030;-88
2022/09/28 05:56:10;;;;;;;3.58;2.53;;;;;;;8.03;84.31;99523.22;6094848;23;20485;-88
2022/09/28 05:58:35;;;;;;;2.08;1.80;;;;;;;8.07;84.46;99530.03;6121193;23;20033;-88
2022/09/28 06:01:01;;;;;;;2.03;1.83;;;;;;;8.12;84.48;99538.56;6118671;23;20408;-88
2022/09/28 06:03:27;;;;;;;3.92;2.22;;;;;;;8.12;84.43;99533.28;6120683;23;20008;-88
2022/09/28 06:05:52;;;;;;;2.42;2.22;;;;;;;8.19;84.26;99548.69;6094372;23;20056;-88
2022/09/28 06:08:18;;;;;;;3.45;2.13;;;;;;;8.17;84.51;99532.13;6094958;23;20090;-88
2022/09/28 06:10:43;;;;;;;2.55;2.13;;;;;;;8.28;84.54;99544.72;6094136;23;20166;-88
2022/09/28 06:13:10;;;;;;;4.82;2.58;;;;;;;8.30;84.48;99553.41;6094377;23;20010;-88
2022/09/28 06:15:36;;;;;;;10.70;2.70;;;;;;;8.27;84.55;99548.31;6092890;23;20017;-88
2022/09/28 06:18:13;;;;;;;4.80;2.70;;;;;;;8.27;84.90;99547.44;6120843;23;20002;-88
2022/09/28 06:20:42;;;;;;;3.33;2.78;;;;;;;8.30;84.49;99557.81;6121885;23;20064;-88
2022/09/28 06:23:08;;;;;;;5.15;2.85;;;;;;;8.25;84.63;99554.56;6096111;23;20411;-88
2022/09/28 06:25:34;;;;;;;3.58;3.03;;;;;;;8.22;84.31;99560.00;6121194;23;20144;-88
2022/09/28 06:28:00;;;;;;;3.30;3.00;;;;;;;8.19;84.17;99561.84;6121277;23;20033;-87
2022/09/28 06:30:27;;;;;;;6.15;3.50;;;;;;;8.15;84.64;99562.06;6122151;23;20408;-88
2022/09/28 06:32:58;;;;;;;4.90;3.45;;;;;;;8.08;84.66;99550.16;6093945;23;20097;-88
2022/09/28 06:35:25;;;;;;;5.85;4.10;;;;;;;8.10;84.51;99559.69;6120524;23;20020;-88
2022/09/28 06:37:51;;;;;;;6.55;3.70;;;;;;;8.11;84.95;99564.03;6096060;23;20010;-88
2022/09/28 06:40:17;;;;;;;3.80;3.47;;;;;;;8.15;84.70;99570.81;6096203;23;20013;-88
2022/09/28 06:42:43;;;;;;;5.35;4.03;;;;;;;8.14;84.57;99558.59;6094018;23;20029;-88
2022/09/28 06:45:09;;;;;;;6.15;4.47;;;;;;;8.20;84.83;99567.97;6095074;23;20355;-88
2022/09/28 06:47:36;;;;;;;7.07;5.03;;;;;;;8.19;84.48;99561.84;6096783;23;20417;-89
2022/09/28 06:50:02;;;;;;;4.70;4.18;;;;;;;8.28;84.63;99571.06;6120714;23;20324;-88
2022/09/28 06:52:28;;;;;;;7.55;5.30;;;;;;;8.20;84.53;99560.06;6094720;23;20010;-88
2022/09/28 06:54:53;;;;;;;6.80;4.82;;;;;;;8.26;84.71;99567.66;6121923;23;20005;-88
2022/09/28 06:57:18;;;;;;;7.63;5.43;;;;;;;8.32;84.65;99571.75;6096866;23;20044;-88
2022/09/28 06:59:44;;;;;;;7.65;6.28;;;;;;;8.36;84.62;99578.56;6122406;23;20010;-89
2022/09/28 07:02:13;;;;;;;9.55;6.07;;;;;;;8.45;84.38;99593.09;6093420;23;20422;-89
2022/09/28 07:04:41;;;;;;;10.30;6.75;;;;;;;8.48;84.47;99583.22;6121858;23;20002;-89
2022/09/28 07:07:09;;;;;;;8.38;6.13;;;;;;;8.57;84.68;99588.03;6121648;23;20006;-89
2022/09/28 07:09:35;;;;;;;11.80;6.28;;;;;;;8.58;84.35;99581.84;6095645;23;20005;-88
2022/09/28 07:12:03;;;;;;;11.23;6.63;;;;;;;8.61;84.16;99578.19;6120443;23;20010;-89
2022/09/28 07:14:29;;;;;;;12.20;6.97;;;;;;;8.75;84.23;99595.91;6120851;23;20025;-89
2022/09/28 07:16:54;;;;;;;9.10;6.72;;;;;;;8.74;84.38;99586.31;6122352;23;20002;-88
2022/09/28 07:19:19;;;;;;;10.25;6.90;;;;;;;8.84;83.91;99587.50;6122442;23;20036;-89
2022/09/28 07:21:45;;;;;;;12.65;7.45;;;;;;;8.91;83.82;99581.00;6122438;23;20048;-88
2022/09/28 07:24:11;;;;;;;13.07;7.15;;;;;;;8.99;83.82;99584.03;6095587;23;20100;-87
2022/09/28 07:26:36;;;;;;;13.35;6.60;;;;;;;9.06;83.68;99590.72;6121787;23;20005;-87
2022/09/28 07:29:02;;;;;;;10.15;7.38;;;;;;;9.06;83.76;99588.06;6095718;23;20100;-88
2022/09/28 07:31:28;;;;;;;11.27;7.20;;;;;;;9.13;83.37;99588.56;6095448;23;20028;-87
2022/09/28 07:33:55;;;;;;;9.70;6.82;;;;;;;9.22;83.69;99595.13;6121370;23;20398;-87
2022/09/28 07:36:21;;;;;;;11.18;7.22;;;;;;;9.23;83.48;99595.03;6122376;23;20006;-87
2022/09/28 07:38:46;;;;;;;9.70;7.38;;;;;;;9.34;83.73;99605.03;6095322;23;20033;-87
2022/09/28 07:41:13;;;;;;;7.30;5.50;;;;;;;9.36;82.84;99601.34;6121397;23;20467;-86
2022/09/28 07:43:39;;;;;;;10.82;6.40;;;;;;;9.43;82.64;99601.88;6120423;23;20002;-86
2022/09/28 07:46:10;;;;;;;14.25;6.65;;;;;;;9.61;82.05;99613.22;6121079;23;20014;-85
2022/09/28 07:48:36;;;;;;;10.45;7.03;;;;;;;9.66;82.16;99596.19;6121787;23;20033;-86
2022/09/28 07:51:02;;;;;;;9.60;6.05;;;;;;;10.00;81.57;99610.09;6095607;23;20468;-85
2022/09/28 07:53:28;;;;;;;7.18;5.82;;;;;;;10.16;80.20;99610.91;6120241;23;20013;-86
2022/09/28 07:56:00;;;;;;;8.68;5.63;;;;;;;10.40;79.95;99608.66;6095117;23;20009;-86
2022/09/28 07:58:26;;;;;;;;;;;;;;;10.81;80.42;99617.69;6122957;23;20005;-85
2022/09/28 08:00:51;;;;;;;8.73;5.68;;;;;;;10.97;78.67;99608.72;6093243;23;20281;-85
2022/09/28 08:03:18;;;;;;;11.65;5.40;;;;;;;11.33;77.76;99609.16;6121136;23;20002;-86
2022/09/28 08:05:44;;;;;;;11.70;6.93;;;;;;;11.56;76.21;99600.59;6094646;23;20006;-85
2022/09/28 08:08:10;;;;;;;7.28;4.45;;;;;;;11.81;75.14;99602.53;6095865;23;20423;-85
2022/09/28 08:10:36;;;;;;;8.23;5.80;;;;;;;12.08;74.85;99620.28;6120817;23;20037;-85
2022/09/28 08:13:03;;;;;;;6.10;4.65;;;;;;;12.33;74.54;99622.13;6120543;23;20053;-86
2022/09/28 08:15:35;;;;;;;7.13;4.30;;;;;;;12.55;72.45;99618.91;6093568;23;20007;-85
2022/09/28 08:18:00;;;;;;;6.53;4.00;;;;;;;12.84;72.47;99622.19;6120838;23;20672;-86
2022/09/28 08:23:10;;;;;;;4.88;4.07;;;;;;;13.44;70.08;99616.22;6121036;23;20064;-85
2022/09/28 08:25:36;;;;;;;7.65;4.03;;;;;;;13.85;69.52;99620.31;6120941;23;20026;-86
2022/09/28 08:28:02;;;;;;;9.15;4.18;;;;;;;14.02;68.99;99631.41;6121680;23;20001;-85
2022/09/28 08:30:27;;;;;;;4.63;4.07;;;;;;;14.20;66.99;99628.38;6120577;23;20130;-85
2022/09/28 08:32:53;;;;;;;5.22;4.63;;;;;;;14.55;66.85;99639.06;6120152;23;20308;-85
2022/09/28 08:35:18;;;;;;;7.78;3.92;;;;;;;14.93;66.65;99633.44;6095469;23;20012;-85
2022/09/28 08:37:51;;;;;;;4.88;4.00;;;;;;;15.38;66.06;99640.59;6122856;23;20587;-85
2022/09/28 08:40:23;;;;;;;7.88;4.03;;;;;;;15.73;64.21;99646.66;6122636;23;20378;-90
2022/09/28 08:42:52;;;;;;;5.03;3.78;;;;;;;16.09;61.46;99641.97;6097402;23;20048;-90
2022/09/28 08:45:26;;;;;;;5.55;3.58;;;;;;;16.01;62.66;99634.59;6121943;23;20049;-91
2022/09/28 08:50:58;;;;;;;4.38;3.25;;;;;;;16.41;61.76;99639.28;6121421;23;20029;-90
2022/09/28 08:53:31;;;;;;;4.93;3.10;;;;;;;17.03;58.30;99656.34;6093191;23;20038;-89
2022/09/28 08:56:01;;;;;;;6.07;3.33;;;;;;;17.38;56.11;99642.59;6122950;23;20002;-89
2022/09/28 08:58:33;;;;;;;5.65;3.38;;;;;;;17.79;57.63;99646.13;6095139;23;20364;-89
2022/09/28 09:00:59;;;;;;;3.92;3.42;;;;;;;18.04;55.06;99652.78;6120124;23;20076;-91
2022/09/28 09:03:40;;;;;;;5.40;3.22;;;;;;;18.17;56.63;99664.06;6093724;23;20009;-90
2022/09/28 09:06:26;;;;;;;4.35;2.65;;;;;;;18.22;56.42;99669.00;6094331;23;20009;-90
2022/09/28 09:09:00;;;;;;;4.88;3.20;;;;;;;17.96;55.41;99663.34;6095831;23;20085;-91
2022/09/28 09:11:35;;;;;;;6.65;2.83;;;;;;;19.32;51.36;99666.81;6121802;23;20010;-91
2022/09/28 09:14:30;;;;;;;3.72;2.80;;;;;;;19.94;50.63;99665.28;6094842;23;20013;-90
2022/09/28 09:17:17;;;;;;;2.67;2.47;;;;;;;20.44;49.24;99672.00;6121649;23;20009;-89
2022/09/28 09:20:13;;;;;;;2.67;2.47;;;;;;;21.26;48.01;99673.50;6122033;23;20013;-89
2022/09/28 09:23:09;;;;;;;5.05;2.58;;;;;;;21.52;47.40;99663.59;6119780;23;20029;-89
2022/09/28 09:25:41;;;;;;;3.05;2.65;;;;;;;22.41;44.76;99663.06;6095503;23;20006;-89
2022/09/28 09:28:25;;;;;;;;;;;;;;;22.89;46.98;99672.19;6092733;23;20338;-89
2022/09/28 09:31:25;;;;;;;3.83;2.60;;;;;;;22.48;45.60;99681.25;6119010;23;19928;-89
2022/09/28 09:33:59;;;;;;;3.20;2.60;;;;;;;20.76;45.61;99688.44;6120224;23;20002;-90
2022/09/28 09:36:55;;;;;;;2.85;2.47;;;;;;;19.41;50.25;99683.84;6095225;23;20456;-91
2022/09/28 09:39:54;;;;;;;4.40;2.67;;;;;;;18.45;53.10;99691.84;6121011;23;20088;-92
2022/09/28 09:42:30;;;;;;;2.63;2.17;;;;;;;17.50;52.79;99684.28;6092982;23;20064;-92
2022/09/28 09:45:14;;;;;;;3.15;2.85;;;;;;;17.74;53.86;99681.28;6091816;23;20097;-92
2022/09/28 09:47:43;;;;;;;2.50;2.30;;;;;;;17.32;53.66;99694.72;6121659;23;20014;-92
2022/09/28 09:50:38;;;;;;;7.35;2.65;;;;;;;17.87;54.64;99685.56;6094080;23;20005;-92
2022/09/28 09:53:22;;;;;;;3.28;2.10;;;;;;;18.38;52.16;99688.06;6116617;23;20498;-91
2022/09/28 09:55:56;;;;;;;2.38;2.17;;;;;;;18.05;52.33;99684.78;6122102;23;20723;-93
2022/09/28 09:58:25;;;;;;;3.17;2.42;;;;;;;17.70;52.33;99690.53;6122684;23;20342;-92
2022/09/28 10:00:54;;;;;;;4.13;2.10;;;;;;;17.33;53.60;99683.06;6120394;23;20024;-92
2022/09/28 10:03:27;;;;;;;3.35;2.60;;;;;;;18.01;54.11;99687.84;6122454;23;20012;-92
2022/09/28 10:06:01;;;;;;;4.97;2.47;;;;;;;19.86;49.21;99681.25;6094665;23;20013;-91
2022/09/28 10:08:29;;;;;;;2.63;2.10;;;;;;;20.30;46.83;99690.31;6096131;23;20002;-91
2022/09/28 10:11:16;;;;;;;3.35;2.00;;;;;;;21.05;46.91;99690.00;6096471;23;20010;-91
2022/09/28 10:13:43;;;;;;;2.78;1.60;;;;;;;21.36;42.76;99690.41;6096408;23;20021;-92
2022/09/28 10:16:09;;;;;;;2.78;1.75;;;;;;;21.44;41.83;99682.38;6121198;23;20009;-91
2022/09/28 10:18:35;;;;;;;3.22;1.70;;;;;;;22.21;40.52;99675.16;6122500;23;20049;-91
2022/09/28 10:21:00;;;;;;;3.97;2.10;;;;;;;23.78;38.17;99685.66;6120117;23;20916;-91
2022/09/28 10:23:32;;;;;;;2.20;1.90;;;;;;;24.24;38.13;99669.56;6122332;23;20082;-90
2022/09/28 10:26:28;;;;;;;3.10;1.30;;;;;;;22.03;43.76;99685.16;6121670;23;20017;-92
2022/09/28 10:29:00;;;;;;;2.67;1.60;;;;;;;20.39;45.17;99684.03;6096555;23;20010;-92
2022/09/28 10:31:33;;;;;;;1.90;1.40;;;;;;;19.50;46.80;99689.19;6121899;23;20014;-92
2022/09/28 10:33:58;;;;;;;4.93;1.83;;;;;;;20.04;47.51;99678.63;6096548;23;20506;-92
2022/09/28 10:36:25;;;;;;;2.17;1.45;;;;;;;20.61;43.68;99679.22;6093569;23;20006;-91
2022/09/28 10:38:50;;;;;;;2.45;1.25;;;;;;;22.44;41.38;99671.81;6095481;23;20013;-92
2022/09/28 10:41:17;;;;;;;4.07;1.58;;;;;;;21.65;42.07;99679.28;6093427;23;20474;-90
2022/09/28 10:44:04;;;;;;;3.10;1.70;;;;;;;20.17;46.33;99683.63;6095291;23;20009;-92
2022/09/28 10:46:32;;;;;;;9.15;2.10;;;;;;;19.92;45.96;99680.69;6121182;23;20472;-92
2022/09/28 10:49:19;;;;;;;4.30;2.08;;;;;;;19.08;49.10;99673.50;6095132;23;20491;-92
2022/09/28 10:51:57;;;;;;;3.97;2.25;;;;;;;18.20;51.88;99677.19;6119236;23;20036;-93
2022/09/28 10:54:25;;;;;;;9.25;2.15;;;;;;;17.81;51.92;99669.09;6122424;23;20006;-93
2022/09/28 10:56:52;;;;;;;3.50;1.50;;;;;;;18.68;50.20;99672.81;6094773;23;20010;-91
2022/09/28 10:59:30;;;;;;;2.55;1.77;;;;;;;20.51;48.19;99681.16;6120876;23;20084;-94
2022/09/28 11:01:58;;;;;;;2.55;1.73;;;;;;;20.20;47.35;99684.19;6094379;23;20100;-92
2022/09/28 11:04:27;;;;;;;3.45;1.67;;;;;;;19.87;47.43;99677.63;6118172;23;20033;-93
2022/09/28 11:06:59;;;;;;;3.10;1.90;;;;;;;20.95;44.81;99681.19;6119679;23;20510;-92
2022/09/28 11:09:35;;;;;;;2.67;2.13;;;;;;;21.77;44.48;99691.44;6093788;23;20380;-92
2022/09/28 11:12:04;;;;;;;3.38;2.35;;;;;;;21.84;43.73;99672.81;6092475;23;20016;-91
2022/09/28 11:14:35;;;;;;;4.82;2.40;;;;;;;21.07;46.07;99677.22;6118017;23;20046;-91
2022/09/28 11:17:23;;;;;;;2.35;1.98;;;;;;;21.46;45.25;99682.22;6119850;23;20502;-92
2022/09/28 11:19:48;;;;;;;4.03;2.33;;;;;;;21.25;42.71;99677.19;6093838;23;20057;-91
2022/09/28 11:22:32;;;;;;;4.18;1.98;;;;;;;19.98;47.99;99674.72;6119299;23;20006;-92
2022/09/28 11:25:17;;;;;;;3.40;1.88;;;;;;;19.60;49.72;99679.28;6120858;23;20081;-94
2022/09/28 11:27:52;;;;;;;3.17;1.40;;;;;;;18.50;48.70;99680.72;6093356;23;20009;-95
2022/09/28 11:30:43;;;;;;;1.70;1.42;;;;;;;18.27;50.80;99674.78;6094631;23;20422;-95
2022/09/28 11:33:18;;;;;;;2.95;1.45;;;;;;;19.29;48.51;99675.13;6093329;23;20148;-92
2022/09/28 11:36:12;;;;;;;2.80;1.42;;;;;;;20.37;46.83;99672.59;6120514;23;20006;-93
2022/09/28 11:38:57;;;;;;;3.15;1.23;;;;;;;19.88;45.38;99676.63;6093798;23;20100;-94
2022/09/28 11:41:47;;;;;;;2.35;1.48;;;;;;;18.94;48.56;99679.31;6119046;23;20017;-92
2022/09/28 11:44:27;;;;;;;3.67;1.30;;;;;;;18.22;51.02;99685.91;6118449;23;20014;-93
2022/09/28 11:47:34;;;;;;;2.58;1.52;;;;;;;17.81;52.58;99687.81;6092843;23;20092;-93
2022/09/28 11:50:02;;;;;;;1.73;0.90;;;;;;;17.22;52.64;99682.31;6093614;23;20010;-93
2022/09/28 11:52:43;;;;;;;1.80;1.10;;;;;;;16.85;53.33;99680.13;6119045;23;20056;-93
2022/09/28 11:55:31;;;;;;;1.65;1.08;;;;;;;16.45;53.78;99677.22;6119594;23;20453;-94
2022/09/28 11:58:21;;;;;;;2.70;1.20;;;;;;;16.51;54.49;99682.06;6093989;23;20014;-92
2022/09/28 12:00:55;;;;;;;2.85;1.40;;;;;;;16.11;55.43;99672.03;6118273;23;20017;-93
2022/09/28 12:03:28;;;;;;;2.83;1.52;;;;;;;16.17;56.51;99671.50;6119796;23;20006;-92